createdAt,value
2022-10-19T05:17:19.855Z,11.73
2022-10-19T05:19:47.828Z,11.64
2022-10-19T05:22:15.897Z,11.64
2022-10-19T05:24:44.226Z,11.85
2022-10-19T05:27:18.239Z,11.69
2022-10-19T05:30:24.872Z,11.49
2022-10-19T05:40:03.184Z,11.75
2022-10-19T05:49:09.553Z,11.75
2022-10-19T05:51:44.977Z,11.81
2022-10-19T05:54:14.204Z,11.63
2022-10-19T05:57:11.524Z,11.54
2022-10-19T05:59:39.749Z,12.18
2022-10-19T06:02:07.950Z,12.18
2022-10-19T06:04:35.997Z,12.21
2022-10-19T06:07:04.038Z,12.24
2022-10-19T06:09:36.136Z,11.89
2022-10-19T06:12:05.901Z,12.21
2022-10-19T06:14:34.137Z,12.00
2022-10-19T06:17:02.275Z,12.32
2022-10-19T06:19:30.366Z,12.09
2022-10-19T06:21:58.421Z,12.28
2022-10-19T06:24:26.554Z,12.34
2022-10-19T06:26:54.808Z,12.30
2022-10-19T06:29:24.361Z,12.00
2022-10-19T06:31:54.263Z,12.30
2022-10-19T06:34:22.419Z,12.45
2022-10-19T06:36:50.569Z,12.49
2022-10-19T06:39:18.948Z,12.36
2022-10-19T06:41:47.074Z,12.33
2022-10-19T06:44:18.246Z,12.17
2022-10-19T06:46:47.779Z,12.02
2022-10-19T06:49:19.190Z,12.00
2022-10-19T06:51:47.244Z,12.17
2022-10-19T06:54:15.351Z,12.47
2022-10-19T06:56:43.429Z,12.25
2022-10-19T06:59:14.794Z,12.63
2022-10-19T07:01:43.211Z,12.20
2022-10-19T07:04:12.868Z,12.17
2022-10-19T07:06:40.886Z,12.78
2022-10-19T07:09:09.294Z,12.77
2022-10-19T07:11:40.393Z,12.25
2022-10-19T07:14:14.384Z,12.29
2022-10-19T07:16:42.741Z,12.18
2022-10-19T07:19:13.577Z,12.79
2022-10-19T07:21:43.811Z,12.75
2022-10-19T07:24:11.861Z,12.54
2022-10-19T07:26:39.812Z,12.72
2022-10-19T07:29:07.792Z,12.81
2022-10-19T07:31:35.786Z,12.88
2022-10-19T07:34:05.660Z,12.87
2022-10-19T07:36:37.045Z,12.92
2022-10-19T07:39:06.613Z,12.98
2022-10-19T07:41:35.831Z,13.02
2022-10-19T07:44:04.730Z,13.06
2022-10-19T07:46:35.810Z,13.04
2022-10-19T07:49:05.862Z,13.12
2022-10-19T07:51:35.201Z,13.01
2022-10-19T07:54:03.332Z,13.01
2022-10-19T07:56:32.256Z,12.97
2022-10-19T07:59:02.825Z,13.05
2022-10-19T08:01:32.645Z,13.10
2022-10-19T08:06:54.919Z,13.12
2022-10-19T08:09:47.763Z,13.19
2022-10-19T08:12:15.336Z,13.03
2022-10-19T08:14:56.769Z,12.60
2022-10-19T08:17:42.525Z,12.67
2022-10-19T08:20:34.084Z,12.72
2022-10-19T08:23:03.702Z,13.02
2022-10-19T08:25:31.850Z,12.68
2022-10-19T08:27:59.833Z,13.02
2022-10-19T08:30:30.983Z,13.15
2022-10-19T08:32:58.970Z,13.13
2022-10-19T08:39:00.026Z,13.16
2022-10-19T08:54:10.909Z,12.96
2022-10-19T08:59:36.112Z,13.24
2022-10-19T09:02:12.165Z,13.42
2022-10-19T09:04:43.334Z,13.36
2022-10-19T09:07:32.587Z,13.41
2022-10-19T09:10:06.478Z,13.45
2022-10-19T09:12:44.227Z,13.53
2022-10-19T09:15:19.244Z,13.71
2022-10-19T09:17:47.463Z,13.61
2022-10-19T09:20:19.206Z,13.23
2022-10-19T09:22:51.829Z,13.52
2022-10-19T09:31:05.707Z,13.47
2022-10-19T09:33:37.345Z,13.71
2022-10-19T09:36:07.243Z,13.67
2022-10-19T09:38:35.500Z,13.56
2022-10-19T09:41:16.791Z,13.80
2022-10-19T09:43:50.976Z,13.80
2022-10-19T09:46:29.530Z,13.79
2022-10-19T09:49:01.503Z,13.89
2022-10-19T09:54:28.380Z,14.03
2022-10-19T09:56:57.713Z,14.03
2022-10-19T09:59:30.795Z,14.13
2022-10-19T10:02:16.259Z,14.23
2022-10-19T10:04:50.375Z,14.23
2022-10-19T10:21:25.612Z,13.66
2022-10-19T10:24:44.661Z,13.81
2022-10-19T10:36:32.828Z,13.83
2022-10-19T10:39:27.442Z,13.73
2022-10-19T11:34:07.417Z,14.28
2022-10-19T12:15:31.556Z,14.64
2022-10-19T12:18:05.646Z,14.52
2022-10-19T12:21:45.721Z,14.36
2022-10-19T12:24:07.305Z,14.26
2022-10-19T12:27:25.858Z,14.38
2022-10-19T12:34:50.017Z,14.00
2022-10-19T12:41:24.676Z,14.03
2022-10-19T13:17:46.451Z,13.98
2022-10-19T13:19:24.043Z,14.61
2022-10-19T13:21:55.748Z,14.64
2022-10-19T13:26:55.321Z,13.84
2022-10-19T13:28:02.540Z,14.21
2022-10-19T13:31:09.300Z,14.53
2022-10-19T13:33:51.205Z,14.30
2022-10-19T13:36:20.254Z,14.78
2022-10-19T13:41:57.201Z,14.74
2022-10-19T13:44:36.751Z,14.86
2022-10-19T13:47:33.962Z,14.72
2022-10-19T13:50:37.036Z,14.87
2022-10-19T13:53:24.970Z,14.43
2022-10-19T13:56:18.295Z,14.96
2022-10-19T13:59:28.402Z,15.02
2022-10-19T14:02:48.152Z,15.16
2022-10-19T14:05:34.518Z,14.99
2022-10-19T14:08:13.310Z,14.91
2022-10-19T14:11:00.089Z,14.78
2022-10-19T14:14:09.264Z,15.08
2022-10-19T14:16:48.231Z,14.78
2022-10-19T14:19:46.278Z,14.59
2022-10-19T14:22:25.519Z,14.60
2022-10-19T14:25:00.745Z,14.72
2022-10-19T14:27:29.030Z,14.81
2022-10-19T14:29:57.179Z,14.81
2022-10-19T14:34:05.546Z,14.37
2022-10-19T14:40:28.827Z,15.03
2022-10-19T14:42:57.953Z,14.74
2022-10-19T14:48:19.265Z,14.64
2022-10-19T14:50:51.627Z,14.88
2022-10-19T14:53:32.354Z,14.85
2022-10-19T14:56:06.202Z,14.97
2022-10-19T14:58:52.397Z,14.71
2022-10-19T15:06:36.241Z,15.16
2022-10-19T15:09:12.074Z,15.16
2022-10-19T15:11:50.054Z,15.10
2022-10-19T15:14:23.823Z,15.01
2022-10-19T15:16:54.140Z,15.14
2022-10-19T15:19:41.275Z,14.50
2022-10-19T15:22:44.279Z,14.49
2022-10-19T15:31:34.146Z,14.71
2022-10-19T15:34:05.464Z,14.66
2022-10-19T17:04:42.461Z,14.32
2022-10-19T17:07:13.659Z,14.32
2022-10-19T17:09:55.463Z,14.38
2022-10-19T17:12:28.750Z,13.83
2022-10-19T17:16:14.191Z,13.97
2022-10-19T17:46:43.910Z,14.07
2022-10-19T17:49:15.340Z,13.78
2022-10-19T17:51:44.016Z,14.11
2022-10-19T17:54:14.483Z,14.12
2022-10-19T17:56:45.371Z,13.71
2022-10-19T17:59:34.759Z,13.73
2022-10-19T18:32:30.720Z,14.37
2022-10-19T18:34:58.778Z,14.35
2022-10-19T18:37:26.810Z,14.35
2022-10-19T18:42:34.962Z,14.32
2022-10-19T18:45:03.121Z,14.54
2022-10-19T18:56:59.884Z,14.11
2022-10-19T19:05:56.135Z,13.99
2022-10-19T19:11:42.156Z,14.47
2022-10-19T19:14:17.849Z,14.17
2022-10-19T19:16:47.502Z,14.10
2022-10-19T19:19:18.481Z,14.35
2022-10-19T19:21:50.109Z,14.14
2022-10-19T19:24:20.774Z,14.16
2022-10-19T19:26:51.927Z,13.89
2022-10-19T19:29:23.022Z,14.19
2022-10-19T19:31:51.822Z,14.23
2022-10-19T19:34:22.000Z,13.92
2022-10-19T19:36:50.573Z,14.13
2022-10-19T19:39:21.109Z,14.39
2022-10-19T19:41:52.743Z,14.42
2022-10-19T19:51:09.221Z,13.98
2022-10-19T19:53:38.553Z,13.94
2022-10-19T19:59:52.733Z,14.21
2022-10-19T20:02:21.314Z,13.93
2022-10-19T20:04:49.684Z,13.98
2022-10-19T20:07:31.556Z,13.76
2022-10-19T20:09:59.784Z,14.00
2022-10-19T20:12:27.993Z,13.45
2022-10-19T20:17:38.343Z,13.54
2022-10-19T20:20:08.452Z,13.67
2022-10-19T20:22:38.061Z,13.68
2022-10-19T20:25:58.555Z,13.48
2022-10-19T20:28:39.447Z,13.60
2022-10-19T20:31:09.500Z,13.87
